x

Lake Of The Woods (45148) Wave Buoy

10:00am - Thu 21st Sep 2017 All times are UTC.

  • Sig Wave height 0.7ft
  • Peak Period 2s
  • Wind
    13mph, 16mph gusts
  • Sea Temp 61°f
  • Air Temp 59°f
  • Sea Pressure 1011.9mb

More Historic Weather Station data

Upgrade to MSW Pro to gain access to the past 30 days of data for over 8000 Wavebouys and Weather Stations around the globe.

Join

Comparision Forecast

View Surf forecast
   
Thu 09/21 10:00am 0.7ft 2s 13 16 mph 1011.9mb 61f 59f
9:00am 0.7ft 2s 16 18 mph 1012.1mb 61f 60f
8:00am 0.3ft 2s 16 18 mph 1011.4mb 61f 60f
7:00am 0.3ft 2s 11 16 mph 1011.3mb 61f 60f
6:00am 0.3ft 2s 13 16 mph 1010.8mb 61f 61f
5:00am 0.3ft 2s 13 18 mph 1010.3mb 61f 61f
4:00am 0.3ft 2s 13 18 mph 1010mb 61f 61f
3:00am 0.3ft 2s 13 18 mph 1009.3mb 61f 62f
2:00am 0.3ft 3s 13 16 mph 1008.7mb 61f 62f
1:00am 0.3ft 3s 11 13 mph 1008.5mb 61f 62f
12:00am  -  2s 9 11 mph 1007.8mb 61f 63f
Wed 09/20 11:00pm 0.3ft 2s 9 11 mph 1006.9mb 62f 64f
10:00pm 0.7ft 2s 11 16 mph 1006.2mb 62f 65f
9:00pm 0.7ft 2s 16 20 mph 1005.7mb 62f 64f
8:00pm 0.7ft 2s 18 22 mph 1005.4mb 61f 63f
7:00pm 0.7ft 2s 18 22 mph 1004.5mb 61f 62f
6:00pm 1ft 2s 16 22 mph 1004mb 61f 60f
5:00pm 0.7ft 2s 18 22 mph 1003.4mb 61f 59f
4:00pm 0.7ft 2s 13 18 mph 1002.7mb 61f 57f
3:00pm 0.7ft 2s 11 16 mph 1001.9mb 61f 56f
2:00pm 0.7ft 2s 18 25 mph 1000.2mb 61f 57f
1:00pm 0.3ft 2s 16 18 mph 998.5mb 61f 61f
12:00pm 0.7ft 2s 18 22 mph 997.8mb 61f 62f
11:00am 0.7ft 2s 20 25 mph 997.8mb 61f 62f
10:00am 0.7ft 2s 16 20 mph 995.9mb 61f 62f
9:00am 1ft 2s 18 22 mph 995mb 61f 62f
8:00am 2ft 3s 29 36 mph 995.8mb 61f 61f
7:00am 1ft 2s 29 36 mph 996.7mb 61f 61f
6:00am 0.7ft 2s 16 22 mph 999.5mb 61f 62f
5:00am 1ft 2s 20 27 mph 1001.4mb 61f 63f
4:00am 0.7ft 2s 18 22 mph 1002.3mb 61f 64f
3:00am 0.7ft 2s 18 22 mph 1003.1mb 61f 65f
2:00am 0.7ft 2s 18 22 mph 1003.6mb 61f 65f
1:00am 0.3ft 2s 18 22 mph 1004.1mb 61f 65f
12:00am 0.3ft 2s 13 16 mph 1005.1mb 61f 65f
Tue 09/19 11:00pm 0.3ft 2s 13 16 mph 1005.7mb 61f 65f
10:00pm 0.3ft 2s 13 18 mph 1006.3mb 61f 65f
9:00pm 0.7ft 2s 13 16 mph 1006.6mb 61f 63f
8:00pm 0.7ft 2s 18 22 mph 1008mb 61f 63f
7:00pm 0.7ft 2s 16 20 mph 1008.7mb 61f 61f
6:00pm 0.7ft 2s 16 20 mph 1009.9mb 61f 60f
5:00pm 0.7ft 2s 13 18 mph 1010.7mb 61f 58f
4:00pm 0.7ft 2s 13 18 mph 1011.4mb 61f 57f
3:00pm 0.3ft 3s 13 18 mph 1011.7mb 61f 57f
1:00pm 0.3ft 2s 13 18 mph 1012.3mb 61f 57f
12:00pm 0.3ft 2s 11 16 mph 1012.5mb 61f 56f
11:00am 0.3ft 2s 11 16 mph 1012.4mb 61f 56f
10:00am 0.3ft 2s 11 13 mph 1012.5mb 61f 56f
9:00am 0.3ft 2s 13 16 mph 1012.5mb 61f 56f
8:00am 0.3ft 3s 11 16 mph 1013mb 61f 57f
7:00am 0.3ft 3s 11 16 mph 1013.4mb 61f 57f
6:00am 0.3ft 2s 13 16 mph 1013.3mb 61f 58f
5:00am 0.3ft 2s 11 16 mph 1013mb 61f 58f
4:00am 0.3ft 2s 11 16 mph 1012.9mb 61f 60f
3:00am  -  3s 11 13 mph 1013.1mb 61f 60f
2:00am  -  3s 7 9 mph 1013.2mb 62f 61f
1:00am  -  3s 9 9 mph 1013.1mb 62f 62f
12:00am  -  3s 9 13 mph 1013mb 62f 62f
Mon 09/18 11:00pm  -  3s 9 9 mph 1012.9mb 62f 63f
10:00pm 0.3ft 3s 9 9 mph 1012.8mb 62f 63f
9:00pm  -  3s 9 13 mph 1013mb 62f 62f
8:00pm  -  2s 7 7 mph 1013.7mb 62f 61f
7:00pm  -  3s 7 9 mph 1014.6mb 62f 61f
6:00pm 0.3ft 3s 9 11 mph 1015.6mb 61f 60f
5:00pm 0.3ft 3s 13 16 mph 1015.8mb 61f 59f
4:00pm 0.3ft 3s 11 16 mph 1016.3mb 61f 58f
3:00pm 0.3ft 2s 11 13 mph 1016.5mb 61f 56f
2:00pm 0.3ft 2s 11 16 mph 1016.3mb 61f 55f
1:00pm 0.3ft 2s 9 13 mph 1016.2mb 61f 54f
12:00pm 0.7ft 2s 11 16 mph 1016.1mb 61f 54f
11:00am 0.3ft 2s 16 20 mph 1015.6mb 61f 54f
10:00am 0.7ft 2s 16 18 mph 1015.8mb 61f 55f
9:00am 0.7ft 2s 18 20 mph 1015.9mb 61f 54f
8:00am 0.7ft 2s 13 16 mph 1016.3mb 61f 55f
7:00am 0.7ft 2s 16 18 mph 1016.3mb 61f 54f
6:00am 0.7ft 2s 18 20 mph 1016.4mb 61f 54f
5:00am 0.7ft 2s 16 18 mph 1016.6mb 61f 54f
4:00am 0.3ft 2s 13 18 mph 1016.8mb 61f 53f
3:00am 0.3ft 2s 13 20 mph 1016.8mb 61f 55f
2:00am 0.3ft 2s 13 16 mph 1016.8mb 61f 55f
1:00am 0.3ft 2s 11 13 mph 1016.6mb 61f 55f
12:00am 0.7ft 2s 13 18 mph 1016.5mb 61f 55f
Sun 09/17 11:00pm 0.7ft 2s 16 20 mph 1016.5mb 61f 55f
10:00pm 0.7ft 2s 11 16 mph 1016.5mb 62f 53f
9:00pm 0.7ft 2s 16 20 mph 1016.6mb 62f 52f
8:00pm 1ft 2s 18 25 mph 1017mb 62f 50f
7:00pm 1.3ft 2s 20 27 mph 1016.6mb 62f 49f
6:00pm 1ft 2s 20 25 mph 1016.3mb 62f 48f
5:00pm 1.3ft 3s 22 29 mph 1015.7mb 62f 48f
4:00pm 1ft 2s 20 27 mph 1015.1mb 62f 48f
3:00pm 1ft 2s 20 29 mph 1013.9mb 62f 49f
2:00pm 1ft 2s 20 25 mph 1013.2mb 62f 48f
1:00pm 1ft 2s 20 27 mph 1012.7mb 62f 48f
12:00pm 1ft 2s 20 25 mph 1012.3mb 62f 49f